Time;durP1;ratioP1;P1;durP2;ratioP2;P2;SDS_P1;SDS_P2;PMS_P1;PMS_P2;Temp;Humidity;BMP_temperature;BMP_pressure;BME280_temperature;BME280_humidity;BME280_pressure;Samples;Min_cycle;Max_cycle;Signal;HPM_P1;HPM_P2
2024/04/10 00:01:44;;;;;;;9.98;2.30;;;;;;;;;;5493601;26;20002;-66
2024/04/10 00:04:12;;;;;;;16.15;1.60;;;;;;;;;;5462297;26;20013;-66
2024/04/10 00:06:39;;;;;;;14.88;1.70;;;;;;;;;;5493547;26;20001;-66
2024/04/10 00:09:07;;;;;;;11.07;1.65;;;;;;;;;;5495066;26;20602;-66
2024/04/10 00:11:34;;;;;;;9.52;1.50;;;;;;;;;;5498339;26;20349;-66
2024/04/10 00:14:02;;;;;;;16.75;1.17;;;;;;;;;;5496685;26;20076;-66
2024/04/10 00:16:29;;;;;;;6.60;1.70;;;;;;;;;;5498786;26;20093;-65
2024/04/10 00:18:57;;;;;;;19.35;2.60;;;;;;;;;;5500600;26;20005;-66
2024/04/10 00:21:24;;;;;;;7.05;1.33;;;;;;;;;;5506230;26;20697;-66
2024/04/10 00:23:52;;;;;;;10.73;1.35;;;;;;;;;;5500295;26;20012;-65
2024/04/10 00:26:19;;;;;;;12.95;1.45;;;;;;;;;;5496597;26;20016;-65
2024/04/10 00:28:46;;;;;;;12.52;1.90;;;;;;;;;;5493372;26;20421;-65
2024/04/10 00:31:14;;;;;;;10.63;1.50;;;;;;;;;;5498384;26;20422;-65
2024/04/10 00:33:41;;;;;;;13.75;3.45;;;;;;;;;;5510739;26;20502;-65
2024/04/10 00:36:09;;;;;;;7.97;1.50;;;;;;;;;;5507833;26;20053;-65
2024/04/10 00:38:37;;;;;;;11.77;1.38;;;;;;;;;;5507225;26;20033;-66
2024/04/10 00:41:06;;;;;;;17.02;1.40;;;;;;;;;;5499453;26;20012;-66
2024/04/10 00:43:33;;;;;;;13.25;1.50;;;;;;;;;;5507018;26;20508;-65
2024/04/10 00:46:08;;;;;;;10.05;1.27;;;;;;;;;;5508250;26;20198;-66
2024/04/10 00:48:38;;;;;;;8.40;1.67;;;;;;;;;;5508671;26;20049;-66
2024/04/10 00:51:10;;;;;;;6.60;1.20;;;;;;;;;;5507275;26;20030;-66
2024/04/10 00:53:38;;;;;;;10.93;1.33;;;;;;;;;;5503207;26;20019;-66
2024/04/10 00:56:06;;;;;;;6.10;1.00;;;;;;;;;;5498240;26;20348;-66
2024/04/10 00:58:33;;;;;;;6.57;1.13;;;;;;;;;;5499707;26;20028;-66
2024/04/10 01:01:01;;;;;;;4.53;0.77;;;;;;;;;;5500027;26;20015;-66
2024/04/10 01:03:30;;;;;;;9.35;1.83;;;;;;;;;;5506458;26;20331;-66
2024/04/10 01:05:59;;;;;;;9.43;2.35;;;;;;;;;;5498348;26;20040;-66
2024/04/10 01:08:28;;;;;;;7.32;0.80;;;;;;;;;;5497271;26;20016;-66
2024/04/10 01:10:55;;;;;;;5.45;1.00;;;;;;;;;;5497842;26;20448;-66
2024/04/10 01:13:23;;;;;;;4.88;0.93;;;;;;;;;;5500022;26;20001;-66
2024/04/10 01:15:50;;;;;;;4.63;0.75;;;;;;;;;;5468833;26;20001;-66
2024/04/10 01:18:18;;;;;;;5.90;1.33;;;;;;;;;;5495594;26;21456;-66
2024/04/10 01:20:46;;;;;;;5.13;0.75;;;;;;;;;;5461969;26;20002;-66
2024/04/10 01:23:13;;;;;;;5.70;0.93;;;;;;;;;;5496971;26;20001;-66
2024/04/10 01:25:41;;;;;;;12.15;1.00;;;;;;;;;;5507296;26;20368;-66
2024/04/10 01:28:08;;;;;;;6.07;1.00;;;;;;;;;;5501080;26;20010;-66
2024/04/10 01:30:35;;;;;;;9.52;1.02;;;;;;;;;;5492599;26;20001;-65
2024/04/10 01:33:03;;;;;;;15.80;2.00;;;;;;;;;;5490146;26;20010;-66
2024/04/10 01:35:31;;;;;;;10.70;1.00;;;;;;;;;;5500526;26;20006;-66
2024/04/10 01:37:59;;;;;;;7.18;0.73;;;;;;;;;;5503650;26;20009;-66
2024/04/10 01:40:28;;;;;;;11.68;2.45;;;;;;;;;;5498314;26;20008;-66
2024/04/10 01:42:56;;;;;;;8.10;1.55;;;;;;;;;;5498740;26;22475;-66
2024/04/10 01:45:24;;;;;;;15.35;1.48;;;;;;;;;;5470507;26;20006;-66
2024/04/10 01:47:51;;;;;;;13.07;1.45;;;;;;;;;;5497380;26;20109;-66
2024/04/10 01:50:19;;;;;;;10.93;2.42;;;;;;;;;;5465637;26;20024;-66
2024/04/10 01:52:46;;;;;;;13.32;2.17;;;;;;;;;;5498118;26;20015;-66
2024/04/10 01:55:14;;;;;;;10.48;1.35;;;;;;;;;;5498324;26;20485;-66
2024/04/10 01:57:41;;;;;;;12.27;2.97;;;;;;;;;;5460521;26;20013;-66
2024/04/10 02:00:10;;;;;;;13.95;1.70;;;;;;;;;;5497859;26;20002;-66
2024/04/10 02:02:37;;;;;;;8.65;1.90;;;;;;;;;;5497548;26;20045;-66
2024/04/10 02:05:05;;;;;;;13.57;1.45;;;;;;;;;;5502349;26;20029;-66
2024/04/10 02:07:32;;;;;;;12.02;1.58;;;;;;;;;;5488818;26;20002;-66
2024/04/10 02:10:00;;;;;;;9.95;1.65;;;;;;;;;;5487278;26;20046;-66
2024/04/10 02:12:27;;;;;;;14.60;1.83;;;;;;;;;;5466118;26;20011;-66
2024/04/10 02:14:55;;;;;;;12.15;1.77;;;;;;;;;;5451757;26;20022;-66
2024/04/10 02:17:23;;;;;;;12.63;2.15;;;;;;;;;;5467407;26;20021;-66
2024/04/10 02:19:51;;;;;;;11.45;1.65;;;;;;;;;;5460804;26;20038;-66
2024/04/10 02:22:18;;;;;;;10.73;1.55;;;;;;;;;;5462365;26;20026;-66
2024/04/10 02:24:46;;;;;;;15.70;2.25;;;;;;;;;;5465653;26;20031;-66
2024/04/10 02:27:13;;;;;;;9.52;1.85;;;;;;;;;;5454568;26;20006;-66
2024/04/10 02:29:41;;;;;;;20.02;2.95;;;;;;;;;;5470886;26;20034;-65
2024/04/10 02:32:09;;;;;;;14.63;1.80;;;;;;;;;;5467018;26;21823;-66
2024/04/10 02:34:37;;;;;;;12.73;3.28;;;;;;;;;;5466315;26;20700;-66
2024/04/10 02:37:04;;;;;;;15.50;3.17;;;;;;;;;;5470446;26;20121;-66
2024/04/10 02:39:32;;;;;;;15.30;2.15;;;;;;;;;;5458509;26;20002;-66
2024/04/10 02:41:59;;;;;;;17.60;2.10;;;;;;;;;;5459383;26;20016;-65
2024/04/10 02:44:27;;;;;;;20.58;3.80;;;;;;;;;;5463201;26;20106;-65
2024/04/10 02:46:55;;;;;;;12.27;1.75;;;;;;;;;;5461623;26;20014;-65
2024/04/10 02:49:23;;;;;;;14.57;2.38;;;;;;;;;;5460026;26;20002;-65
2024/04/10 02:51:50;;;;;;;15.90;2.70;;;;;;;;;;5452938;26;20014;-65
2024/04/10 02:54:17;;;;;;;10.25;2.45;;;;;;;;;;5461972;26;20006;-66
2024/04/10 02:56:45;;;;;;;15.00;2.33;;;;;;;;;;5463093;26;20523;-66
2024/04/10 02:59:12;;;;;;;14.90;2.25;;;;;;;;;;5457986;26;20002;-66
2024/04/10 03:01:40;;;;;;;13.10;2.28;;;;;;;;;;5465787;26;20010;-66
2024/04/10 03:04:07;;;;;;;16.58;2.88;;;;;;;;;;5458902;26;20104;-66
2024/04/10 03:06:35;;;;;;;11.90;2.97;;;;;;;;;;5463216;26;20028;-66
2024/04/10 03:09:02;;;;;;;14.55;2.00;;;;;;;;;;5461745;26;20040;-66
2024/04/10 03:11:30;;;;;;;12.88;2.08;;;;;;;;;;5461877;26;20426;-66
2024/04/10 03:13:57;;;;;;;12.57;2.15;;;;;;;;;;5488186;26;20006;-66
2024/04/10 03:16:24;;;;;;;18.70;3.28;;;;;;;;;;5498055;26;20019;-66
2024/04/10 03:18:52;;;;;;;19.23;3.00;;;;;;;;;;5501968;26;20019;-66
2024/04/10 03:21:19;;;;;;;18.67;2.33;;;;;;;;;;5459699;26;20022;-64
2024/04/10 03:23:47;;;;;;;18.65;2.58;;;;;;;;;;5496912;26;20012;-64
2024/04/10 03:26:14;;;;;;;13.23;2.30;;;;;;;;;;5497628;26;20029;-66
2024/04/10 03:28:42;;;;;;;14.95;2.90;;;;;;;;;;5476665;26;20019;-66
2024/04/10 03:31:09;;;;;;;15.15;3.53;;;;;;;;;;5506506;26;20037;-67
2024/04/10 03:33:37;;;;;;;19.13;2.90;;;;;;;;;;5507483;26;20041;-66
2024/04/10 03:36:04;;;;;;;16.88;2.75;;;;;;;;;;5508921;26;20041;-65
2024/04/10 03:38:32;;;;;;;15.05;2.83;;;;;;;;;;5504749;26;20005;-66
2024/04/10 03:40:59;;;;;;;14.77;2.92;;;;;;;;;;5503056;26;20041;-66
2024/04/10 03:43:27;;;;;;;17.40;2.15;;;;;;;;;;5500288;26;20041;-66
2024/04/10 03:45:56;;;;;;;16.88;2.63;;;;;;;;;;5504972;26;20471;-65
2024/04/10 03:48:23;;;;;;;11.00;2.42;;;;;;;;;;5504367;26;20002;-65
2024/04/10 03:50:57;;;;;;;15.93;3.67;;;;;;;;;;5505809;26;20030;-65
2024/04/10 03:53:25;;;;;;;19.98;4.40;;;;;;;;;;5505217;26;20008;-66
2024/04/10 03:55:52;;;;;;;14.57;3.13;;;;;;;;;;5505201;26;20029;-65
2024/04/10 03:58:20;;;;;;;14.20;2.63;;;;;;;;;;5500606;26;20025;-66
2024/04/10 04:00:47;;;;;;;16.25;3.13;;;;;;;;;;5459333;26;20002;-66
2024/04/10 04:03:15;;;;;;;14.25;3.50;;;;;;;;;;5502557;26;20026;-66
2024/04/10 04:05:42;;;;;;;15.68;3.15;;;;;;;;;;5496521;26;20053;-66
2024/04/10 04:08:11;;;;;;;17.45;3.47;;;;;;;;;;5505071;26;20009;-66
2024/04/10 04:10:42;;;;;;;15.02;3.35;;;;;;;;;;5506798;26;20016;-66
2024/04/10 04:13:10;;;;;;;16.80;3.15;;;;;;;;;;5501293;26;20440;-65
2024/04/10 04:15:40;;;;;;;26.60;4.43;;;;;;;;;;5499320;26;20002;-66
2024/04/10 04:18:08;;;;;;;20.23;3.53;;;;;;;;;;5509480;26;20033;-66
2024/04/10 04:20:35;;;;;;;15.25;3.05;;;;;;;;;;5503353;26;20442;-66
2024/04/10 04:23:03;;;;;;;18.83;4.03;;;;;;;;;;5503237;26;20037;-66
2024/04/10 04:25:32;;;;;;;15.63;3.13;;;;;;;;;;5506913;26;20024;-65
2024/04/10 04:28:00;;;;;;;23.33;4.22;;;;;;;;;;5504570;26;20036;-66
2024/04/10 04:30:27;;;;;;;20.58;4.28;;;;;;;;;;5503988;26;20025;-65
2024/04/10 04:32:54;;;;;;;18.55;3.72;;;;;;;;;;5502748;26;20049;-65
2024/04/10 04:35:22;;;;;;;17.73;3.63;;;;;;;;;;5495885;26;20002;-66
2024/04/10 04:37:57;;;;;;;20.48;4.00;;;;;;;;;;5505012;26;20074;-66
2024/04/10 04:40:30;;;;;;;20.30;3.85;;;;;;;;;;5501759;26;20025;-66
2024/04/10 04:42:58;;;;;;;14.38;3.58;;;;;;;;;;5502315;26;20002;-66
2024/04/10 04:45:26;;;;;;;26.13;3.88;;;;;;;;;;5508755;26;20033;-66
2024/04/10 04:47:55;;;;;;;20.05;6.05;;;;;;;;;;5500706;26;20046;-66
2024/04/10 04:50:22;;;;;;;21.65;3.92;;;;;;;;;;5468997;26;22111;-65
2024/04/10 04:52:50;;;;;;;21.33;3.78;;;;;;;;;;5471441;26;20008;-66
2024/04/10 04:55:18;;;;;;;19.95;4.22;;;;;;;;;;5505604;26;20081;-66
2024/04/10 04:57:46;;;;;;;21.38;4.55;;;;;;;;;;5504633;26;20001;-66
2024/04/10 05:00:14;;;;;;;21.20;5.57;;;;;;;;;;5510157;26;20029;-66
2024/04/10 05:02:41;;;;;;;21.90;5.38;;;;;;;;;;5473625;26;20001;-67
2024/04/10 05:05:12;;;;;;;19.17;3.67;;;;;;;;;;5470747;26;20001;-66
2024/04/10 05:07:41;;;;;;;20.40;4.93;;;;;;;;;;5507923;26;20068;-66
2024/04/10 05:10:08;;;;;;;21.13;4.90;;;;;;;;;;5502941;26;20740;-66
2024/04/10 05:12:38;;;;;;;25.60;4.35;;;;;;;;;;5503484;26;20002;-68
2024/04/10 05:15:06;;;;;;;25.77;5.38;;;;;;;;;;5507820;26;20109;-67
2024/04/10 05:17:33;;;;;;;23.88;4.90;;;;;;;;;;5505225;26;20024;-67
2024/04/10 05:20:01;;;;;;;23.38;5.07;;;;;;;;;;5463534;26;20021;-66
2024/04/10 05:22:28;;;;;;;34.70;5.47;;;;;;;;;;5493595;26;20033;-66
2024/04/10 05:24:56;;;;;;;20.35;4.60;;;;;;;;;;5500440;26;20108;-66
2024/04/10 05:27:25;;;;;;;25.33;5.50;;;;;;;;;;5470297;26;20029;-66
2024/04/10 05:29:57;;;;;;;28.65;5.15;;;;;;;;;;5493899;26;20429;-66
2024/04/10 05:32:25;;;;;;;26.55;4.93;;;;;;;;;;5506412;26;20041;-66
2024/04/10 05:34:53;;;;;;;29.45;5.10;;;;;;;;;;5507797;26;20556;-66
2024/04/10 05:37:21;;;;;;;21.40;5.40;;;;;;;;;;5506990;26;20006;-66
2024/04/10 05:39:50;;;;;;;23.00;4.95;;;;;;;;;;5504958;26;20009;-66
2024/04/10 05:42:17;;;;;;;24.02;5.55;;;;;;;;;;5500305;26;20001;-67
2024/04/10 05:44:44;;;;;;;27.77;6.63;;;;;;;;;;5500167;26;20001;-66
2024/04/10 05:47:12;;;;;;;21.95;6.10;;;;;;;;;;5490079;26;20026;-66
2024/04/10 05:49:40;;;;;;;30.52;6.70;;;;;;;;;;5490718;26;20019;-66
2024/04/10 05:52:08;;;;;;;30.63;7.63;;;;;;;;;;5498922;26;20022;-66
2024/04/10 05:54:35;;;;;;;54.17;7.90;;;;;;;;;;5498827;26;20041;-67
2024/04/10 05:57:02;;;;;;;26.55;6.60;;;;;;;;;;5503060;26;20030;-66
2024/04/10 05:59:30;;;;;;;24.50;6.25;;;;;;;;;;5504561;26;20060;-66
2024/04/10 06:01:57;;;;;;;31.65;6.28;;;;;;;;;;5466088;26;20005;-66
2024/04/10 06:04:25;;;;;;;34.20;5.97;;;;;;;;;;5498358;26;20041;-66
2024/04/10 06:06:52;;;;;;;26.83;5.63;;;;;;;;;;5467352;26;20005;-66
2024/04/10 06:09:20;;;;;;;33.15;7.03;;;;;;;;;;5469307;26;20001;-65
2024/04/10 06:11:47;;;;;;;30.17;7.20;;;;;;;;;;5499048;26;20448;-65
2024/04/10 06:14:15;;;;;;;21.48;6.82;;;;;;;;;;5492851;26;20385;-65
2024/04/10 06:16:42;;;;;;;30.30;8.35;;;;;;;;;;5501982;26;20573;-66
2024/04/10 06:19:10;;;;;;;29.25;6.47;;;;;;;;;;5502208;26;20002;-65
2024/04/10 06:21:37;;;;;;;29.23;8.02;;;;;;;;;;5497643;26;20024;-65
2024/04/10 06:24:06;;;;;;;27.20;6.72;;;;;;;;;;5503335;26;20015;-66
2024/04/10 06:26:33;;;;;;;26.25;6.47;;;;;;;;;;5475118;26;20401;-65
2024/04/10 06:29:01;;;;;;;29.05;6.32;;;;;;;;;;5501288;26;20058;-66
2024/04/10 06:31:28;;;;;;;26.33;6.82;;;;;;;;;;5510059;26;20072;-66
2024/04/10 06:33:56;;;;;;;24.45;6.57;;;;;;;;;;5508134;26;20368;-66
2024/04/10 06:36:23;;;;;;;25.45;6.38;;;;;;;;;;5506756;26;20029;-66
2024/04/10 06:38:51;;;;;;;20.77;6.18;;;;;;;;;;5506249;26;20340;-66
2024/04/10 06:41:18;;;;;;;24.10;6.88;;;;;;;;;;5506703;26;20016;-66
2024/04/10 06:43:46;;;;;;;23.92;6.38;;;;;;;;;;5504379;26;20480;-66
2024/04/10 06:46:16;;;;;;;18.90;5.65;;;;;;;;;;5499176;26;20025;-66
2024/04/10 06:48:44;;;;;;;21.52;5.88;;;;;;;;;;5503762;26;20024;-66
2024/04/10 06:51:12;;;;;;;18.60;6.18;;;;;;;;;;5495668;26;20442;-66
2024/04/10 06:53:40;;;;;;;27.65;6.18;;;;;;;;;;5498715;26;20053;-66
2024/04/10 06:56:09;;;;;;;24.25;6.05;;;;;;;;;;5495150;26;20331;-66
2024/04/10 06:58:36;;;;;;;24.25;5.57;;;;;;;;;;5493987;26;20034;-66
2024/04/10 07:01:05;;;;;;;27.63;6.63;;;;;;;;;;5504896;26;20343;-66
2024/04/10 07:03:35;;;;;;;31.67;7.30;;;;;;;;;;5502865;26;20026;-66
2024/04/10 07:06:04;;;;;;;18.52;5.75;;;;;;;;;;5498375;26;20009;-66
2024/04/10 07:08:32;;;;;;;22.85;7.25;;;;;;;;;;5492333;26;20042;-66
2024/04/10 07:11:00;;;;;;;22.33;5.88;;;;;;;;;;5497155;26;20042;-66
2024/04/10 07:13:27;;;;;;;31.17;7.35;;;;;;;;;;5507552;26;20502;-66
2024/04/10 07:16:02;;;;;;;23.33;5.43;;;;;;;;;;5504999;26;20014;-66
2024/04/10 07:18:30;;;;;;;31.52;6.93;;;;;;;;;;5473306;26;20010;-68
2024/04/10 07:21:04;;;;;;;24.35;6.38;;;;;;;;;;5502813;26;20011;-67
2024/04/10 07:23:32;;;;;;;23.10;6.45;;;;;;;;;;5503891;26;20475;-67
2024/04/10 07:26:08;;;;;;;19.83;6.80;;;;;;;;;;5504627;26;20063;-67
2024/04/10 07:28:36;;;;;;;24.65;5.22;;;;;;;;;;5498438;26;20490;-67
2024/04/10 07:31:04;;;;;;;16.48;4.70;;;;;;;;;;5497260;26;20046;-68
2024/04/10 07:33:31;;;;;;;15.80;4.38;;;;;;;;;;5495884;26;20030;-67
2024/04/10 07:36:06;;;;;;;18.70;5.53;;;;;;;;;;5501893;26;20001;-67
2024/04/10 07:38:34;;;;;;;22.58;4.75;;;;;;;;;;5497614;26;20105;-67
2024/04/10 07:41:01;;;;;;;19.63;4.55;;;;;;;;;;5496626;26;20009;-67
2024/04/10 07:43:29;;;;;;;21.33;4.28;;;;;;;;;;5505558;26;20029;-67
2024/04/10 07:45:56;;;;;;;22.88;5.95;;;;;;;;;;5510924;26;20059;-67
2024/04/10 07:48:24;;;;;;;17.70;4.43;;;;;;;;;;5513308;26;20002;-67
2024/04/10 07:50:51;;;;;;;23.63;5.78;;;;;;;;;;5448993;26;20009;-67
2024/04/10 07:53:19;;;;;;;25.17;5.05;;;;;;;;;;5512429;26;20473;-67
2024/04/10 07:55:47;;;;;;;20.20;5.10;;;;;;;;;;5510017;26;20029;-67
2024/04/10 07:58:14;;;;;;;20.50;4.32;;;;;;;;;;5504151;26;20012;-67
2024/04/10 08:00:42;;;;;;;24.88;5.18;;;;;;;;;;5505451;26;20461;-67
2024/04/10 08:03:10;;;;;;;17.55;4.70;;;;;;;;;;5503072;26;20616;-67
2024/04/10 08:05:38;;;;;;;18.95;4.45;;;;;;;;;;5507554;26;20016;-67
2024/04/10 08:08:05;;;;;;;17.85;4.57;;;;;;;;;;5506157;26;20045;-67
2024/04/10 08:10:32;;;;;;;20.15;4.70;;;;;;;;;;5502188;26;20060;-66
2024/04/10 08:13:03;;;;;;;17.35;4.40;;;;;;;;;;5501799;26;20480;-66
2024/04/10 08:15:31;;;;;;;22.02;6.03;;;;;;;;;;5432763;26;20038;-66
2024/04/10 08:17:58;;;;;;;23.63;4.55;;;;;;;;;;5471623;26;20046;-67
2024/04/10 08:20:26;;;;;;;22.35;5.03;;;;;;;;;;5465568;26;20013;-67
2024/04/10 08:22:53;;;;;;;23.90;4.47;;;;;;;;;;5474009;26;20184;-67
2024/04/10 08:25:21;;;;;;;16.17;4.38;;;;;;;;;;5478731;26;20030;-67
2024/04/10 08:27:48;;;;;;;20.48;5.97;;;;;;;;;;5472382;26;20095;-67
2024/04/10 08:30:16;;;;;;;21.35;4.72;;;;;;;;;;5439594;26;20010;-67
2024/04/10 08:32:43;;;;;;;21.08;4.22;;;;;;;;;;5470490;26;20006;-67
2024/04/10 08:35:11;;;;;;;17.52;4.78;;;;;;;;;;5468047;26;20342;-67
2024/04/10 08:37:38;;;;;;;15.48;4.55;;;;;;;;;;5469204;26;20034;-67
2024/04/10 08:40:06;;;;;;;22.58;4.55;;;;;;;;;;5479200;26;20480;-67
2024/04/10 08:42:34;;;;;;;22.25;5.68;;;;;;;;;;5464579;26;20002;-67
2024/04/10 08:45:01;;;;;;;22.30;4.50;;;;;;;;;;5476159;26;20489;-67
2024/04/10 08:47:30;;;;;;;16.63;4.13;;;;;;;;;;5475881;26;20102;-67
2024/04/10 08:50:00;;;;;;;18.67;4.63;;;;;;;;;;5478681;26;20038;-67
2024/04/10 08:52:28;;;;;;;19.52;3.88;;;;;;;;;;5478357;26;20030;-67
2024/04/10 08:54:57;;;;;;;18.33;4.18;;;;;;;;;;5472102;26;20114;-67
2024/04/10 08:57:24;;;;;;;15.57;3.58;;;;;;;;;;5473081;26;20026;-67
2024/04/10 08:59:52;;;;;;;20.45;4.65;;;;;;;;;;5472077;26;20034;-67
2024/04/10 09:02:20;;;;;;;20.23;4.43;;;;;;;;;;5467777;26;20025;-67
2024/04/10 09:04:48;;;;;;;13.82;3.40;;;;;;;;;;5467198;26;20029;-67
2024/04/10 09:07:18;;;;;;;15.52;3.78;;;;;;;;;;5446860;26;20010;-67
2024/04/10 09:09:45;;;;;;;20.42;3.70;;;;;;;;;;5436324;26;20024;-67
2024/04/10 09:12:21;;;;;;;23.27;4.10;;;;;;;;;;5440510;26;20002;-67
2024/04/10 09:14:49;;;;;;;19.33;3.72;;;;;;;;;;5492965;26;20026;-67
2024/04/10 09:17:17;;;;;;;14.98;3.33;;;;;;;;;;5499495;26;20504;-67
2024/04/10 09:19:45;;;;;;;22.10;3.97;;;;;;;;;;5495192;26;20033;-67
2024/04/10 09:22:13;;;;;;;15.07;3.13;;;;;;;;;;5503155;26;20005;-67
2024/04/10 09:24:40;;;;;;;18.63;3.90;;;;;;;;;;5500164;26;20030;-67
2024/04/10 09:27:10;;;;;;;16.70;3.70;;;;;;;;;;5507537;26;20387;-64
2024/04/10 09:29:37;;;;;;;14.45;3.70;;;;;;;;;;5503522;26;20147;-67
2024/04/10 09:32:05;;;;;;;16.70;4.63;;;;;;;;;;5503636;26;20387;-68
2024/04/10 09:34:33;;;;;;;17.80;3.47;;;;;;;;;;5471106;26;20009;-67
2024/04/10 09:37:02;;;;;;;16.58;3.45;;;;;;;;;;5500222;26;20002;-67
2024/04/10 09:39:29;;;;;;;16.63;3.22;;;;;;;;;;5504114;26;20024;-67
2024/04/10 09:41:58;;;;;;;22.50;4.50;;;;;;;;;;5502302;26;20006;-67
2024/04/10 09:44:32;;;;;;;18.60;3.10;;;;;;;;;;5498021;26;20041;-67
2024/04/10 09:47:00;;;;;;;19.25;3.08;;;;;;;;;;5499627;26;20016;-67
2024/04/10 09:49:28;;;;;;;18.70;3.85;;;;;;;;;;5499320;26;20017;-67
2024/04/10 09:51:59;;;;;;;13.68;3.67;;;;;;;;;;5501423;26;20299;-67
2024/04/10 09:54:27;;;;;;;23.63;4.55;;;;;;;;;;5501788;26;20033;-68
2024/04/10 09:56:57;;;;;;;17.75;4.82;;;;;;;;;;5499795;26;20045;-67
2024/04/10 09:59:25;;;;;;;20.27;3.60;;;;;;;;;;5509183;26;20008;-67
2024/04/10 10:01:55;;;;;;;20.95;3.90;;;;;;;;;;5504770;26;20024;-67
2024/04/10 10:04:23;;;;;;;13.88;3.22;;;;;;;;;;5503540;26;20469;-67
2024/04/10 10:07:00;;;;;;;22.17;3.67;;;;;;;;;;5499735;26;20041;-67
2024/04/10 10:09:27;;;;;;;16.05;3.53;;;;;;;;;;5498975;26;20026;-69
2024/04/10 10:11:59;;;;;;;15.95;3.75;;;;;;;;;;5472073;26;20068;-67
2024/04/10 10:14:27;;;;;;;20.55;3.85;;;;;;;;;;5500771;26;20012;-67
2024/04/10 10:17:06;;;;;;;19.75;3.80;;;;;;;;;;5504869;26;20519;-68
2024/04/10 10:19:35;;;;;;;16.25;3.83;;;;;;;;;;5475914;26;20052;-68
2024/04/10 10:22:03;;;;;;;17.50;4.10;;;;;;;;;;5505141;26;20001;-68
2024/04/10 10:24:30;;;;;;;16.83;3.20;;;;;;;;;;5501090;26;20002;-67
2024/04/10 10:26:59;;;;;;;20.17;3.85;;;;;;;;;;5494654;26;20028;-67
2024/04/10 10:29:27;;;;;;;18.08;4.53;;;;;;;;;;5506769;26;20038;-67
2024/04/10 10:32:02;;;;;;;15.27;3.40;;;;;;;;;;5507817;26;20016;-67
2024/04/10 10:34:30;;;;;;;20.60;4.32;;;;;;;;;;5497651;26;20097;-67
2024/04/10 10:37:06;;;;;;;13.73;3.45;;;;;;;;;;5496830;26;20092;-68
2024/04/10 10:39:34;;;;;;;13.68;2.90;;;;;;;;;;5484642;26;22216;-67
2024/04/10 10:42:03;;;;;;;17.20;3.72;;;;;;;;;;5499526;26;20011;-68
2024/04/10 10:44:30;;;;;;;13.80;2.70;;;;;;;;;;5500637;26;20033;-67
2024/04/10 10:46:58;;;;;;;13.73;2.70;;;;;;;;;;5506972;26;20019;-67
2024/04/10 10:49:27;;;;;;;14.35;2.88;;;;;;;;;;5502292;26;20002;-67
2024/04/10 10:51:55;;;;;;;13.65;2.88;;;;;;;;;;5473134;26;20093;-67
2024/04/10 10:54:23;;;;;;;15.45;2.88;;;;;;;;;;5505488;26;20020;-67
2024/04/10 10:56:50;;;;;;;12.43;2.55;;;;;;;;;;5509062;26;20030;-68
2024/04/10 10:59:19;;;;;;;11.88;2.95;;;;;;;;;;5499402;26;20030;-68
2024/04/10 11:01:46;;;;;;;12.60;2.60;;;;;;;;;;5470499;26;20015;-68
2024/04/10 11:04:15;;;;;;;10.48;2.30;;;;;;;;;;5497049;26;20340;-68
2024/04/10 11:06:43;;;;;;;12.30;2.70;;;;;;;;;;5466436;26;20036;-68
2024/04/10 11:09:11;;;;;;;10.68;2.78;;;;;;;;;;5502823;26;20025;-68
2024/04/10 11:11:39;;;;;;;13.30;2.95;;;;;;;;;;5467395;26;20002;-68
2024/04/10 11:14:08;;;;;;;14.65;3.10;;;;;;;;;;5506094;26;20420;-68
2024/04/10 11:16:36;;;;;;;11.07;2.45;;;;;;;;;;5506343;26;20016;-67
2024/04/10 11:19:04;;;;;;;11.32;2.80;;;;;;;;;;5511336;26;20344;-67
2024/04/10 11:21:32;;;;;;;12.35;2.90;;;;;;;;;;5507192;26;20037;-67
2024/04/10 11:23:59;;;;;;;16.05;2.85;;;;;;;;;;5513149;26;20029;-67
2024/04/10 11:26:27;;;;;;;10.00;2.17;;;;;;;;;;5512901;26;20026;-68
2024/04/10 11:28:55;;;;;;;13.75;2.85;;;;;;;;;;5507585;26;20009;-69
2024/04/10 11:31:22;;;;;;;13.05;2.47;;;;;;;;;;5479943;26;20125;-67
2024/04/10 11:33:50;;;;;;;15.73;3.17;;;;;;;;;;5515164;26;20041;-67
2024/04/10 11:36:17;;;;;;;10.48;2.85;;;;;;;;;;5506021;26;20037;-67
2024/04/10 11:38:48;;;;;;;17.60;3.60;;;;;;;;;;5477630;26;20661;-67
2024/04/10 11:41:15;;;;;;;9.15;2.55;;;;;;;;;;5501526;26;20110;-66
2024/04/10 11:43:43;;;;;;;12.65;2.80;;;;;;;;;;5504421;26;20031;-66
2024/04/10 11:46:10;;;;;;;12.57;2.88;;;;;;;;;;5497450;26;20026;-65
2024/04/10 11:48:38;;;;;;;15.10;2.92;;;;;;;;;;5499477;26;20285;-65
2024/04/10 11:51:06;;;;;;;11.85;2.45;;;;;;;;;;5502037;26;20461;-65
2024/04/10 11:53:33;;;;;;;11.68;2.22;;;;;;;;;;5500208;26;20002;-65
2024/04/10 11:56:01;;;;;;;9.65;2.05;;;;;;;;;;5503102;26;20425;-65
2024/04/10 11:58:28;;;;;;;10.48;2.80;;;;;;;;;;5498979;26;20041;-65
2024/04/10 12:00:56;;;;;;;10.95;2.97;;;;;;;;;;5511610;26;20053;-65
2024/04/10 12:03:24;;;;;;;8.85;2.25;;;;;;;;;;5513800;26;20010;-65
2024/04/10 12:05:51;;;;;;;10.00;2.10;;;;;;;;;;5481513;26;20016;-65
2024/04/10 12:08:19;;;;;;;11.52;2.42;;;;;;;;;;5513602;26;20054;-65
2024/04/10 12:10:47;;;;;;;9.98;2.25;;;;;;;;;;5513766;26;20037;-65
2024/04/10 12:13:14;;;;;;;13.35;2.33;;;;;;;;;;5514488;26;20496;-65
2024/04/10 12:15:42;;;;;;;8.95;1.73;;;;;;;;;;5512418;26;20033;-65
2024/04/10 12:18:09;;;;;;;11.50;2.22;;;;;;;;;;5503161;26;20060;-65
2024/04/10 12:20:37;;;;;;;9.70;2.65;;;;;;;;;;5473201;26;20503;-65
2024/04/10 12:23:04;;;;;;;10.93;2.13;;;;;;;;;;5506875;26;20009;-65
2024/04/10 12:25:32;;;;;;;9.95;2.28;;;;;;;;;;5500878;26;20038;-65
2024/04/10 12:27:59;;;;;;;8.60;2.10;;;;;;;;;;5513252;26;20030;-65
2024/04/10 12:30:27;;;;;;;9.02;1.80;;;;;;;;;;5506958;26;20024;-65
2024/04/10 12:32:54;;;;;;;8.63;1.85;;;;;;;;;;5505756;26;20041;-65
2024/04/10 12:38:08;;;;;;;9.05;1.98;;;;;;;;;;5508662;26;20424;-65
2024/04/10 12:40:36;;;;;;;5.07;1.77;;;;;;;;;;5508778;26;20001;-65
2024/04/10 12:43:03;;;;;;;8.50;1.90;;;;;;;;;;5506602;26;20001;-66
2024/04/10 12:45:31;;;;;;;8.35;1.65;;;;;;;;;;5508829;26;20059;-65
2024/04/10 12:47:58;;;;;;;10.27;2.17;;;;;;;;;;5498871;26;20337;-65
2024/04/10 12:50:26;;;;;;;10.65;2.25;;;;;;;;;;5507334;26;20009;-65
2024/04/10 12:52:53;;;;;;;7.97;1.73;;;;;;;;;;5474432;26;20049;-65
2024/04/10 12:55:21;;;;;;;6.95;1.58;;;;;;;;;;5503806;26;20026;-65
2024/04/10 12:57:48;;;;;;;9.40;1.75;;;;;;;;;;5474213;26;20097;-65
2024/04/10 13:00:18;;;;;;;7.47;1.58;;;;;;;;;;5506333;26;20057;-65
2024/04/10 13:02:47;;;;;;;6.00;1.50;;;;;;;;;;5480708;26;20010;-63
2024/04/10 13:05:14;;;;;;;10.23;2.03;;;;;;;;;;5509158;26;20045;-65
2024/04/10 13:07:42;;;;;;;7.70;1.80;;;;;;;;;;5509330;26;20042;-65
2024/04/10 13:10:13;;;;;;;10.25;1.40;;;;;;;;;;5500727;26;21248;-65
2024/04/10 13:12:40;;;;;;;10.05;2.10;;;;;;;;;;5509917;26;20022;-65
2024/04/10 13:15:08;;;;;;;6.90;1.88;;;;;;;;;;5505567;26;20382;-65
2024/04/10 13:17:35;;;;;;;7.82;1.60;;;;;;;;;;5509635;26;20112;-70
2024/04/10 13:20:03;;;;;;;7.88;1.33;;;;;;;;;;5466580;26;20367;-65
2024/04/10 13:22:31;;;;;;;7.22;1.60;;;;;;;;;;5509671;26;20002;-65
2024/04/10 13:24:58;;;;;;;7.28;1.55;;;;;;;;;;5509166;26;20041;-65
2024/04/10 13:27:26;;;;;;;7.18;1.75;;;;;;;;;;5504020;26;20033;-65
2024/04/10 13:29:53;;;;;;;6.38;1.63;;;;;;;;;;5500873;26;20065;-65
2024/04/10 13:32:21;;;;;;;7.45;1.60;;;;;;;;;;5507569;26;20033;-65
2024/04/10 13:34:49;;;;;;;8.93;1.45;;;;;;;;;;5503583;26;20029;-65
2024/04/10 13:37:16;;;;;;;8.23;1.92;;;;;;;;;;5511341;26;20029;-65
2024/04/10 13:39:47;;;;;;;9.63;2.00;;;;;;;;;;5508233;26;20049;-67
2024/04/10 13:42:15;;;;;;;7.90;1.50;;;;;;;;;;5507433;26;20472;-67
2024/04/10 13:44:42;;;;;;;11.30;1.45;;;;;;;;;;5514167;26;20488;-67
2024/04/10 13:47:10;;;;;;;9.73;2.22;;;;;;;;;;5508492;26;20025;-67
2024/04/10 13:49:37;;;;;;;8.88;1.70;;;;;;;;;;5508426;26;20157;-67
2024/04/10 13:52:05;;;;;;;6.22;1.77;;;;;;;;;;5510934;26;20044;-67
2024/04/10 13:54:34;;;;;;;7.60;1.33;;;;;;;;;;5509469;26;20029;-67
2024/04/10 13:57:02;;;;;;;9.07;1.58;;;;;;;;;;5501665;26;20045;-68
2024/04/10 13:59:29;;;;;;;8.38;1.77;;;;;;;;;;5509911;26;20041;-67
2024/04/10 14:01:57;;;;;;;6.40;1.35;;;;;;;;;;5498320;26;20471;-67
2024/04/10 14:04:25;;;;;;;6.28;1.50;;;;;;;;;;5501426;26;20023;-67
2024/04/10 14:06:52;;;;;;;4.88;1.40;;;;;;;;;;5503058;26;20033;-67
2024/04/10 14:09:20;;;;;;;4.32;1.10;;;;;;;;;;5479096;26;20021;-67
2024/04/10 14:11:49;;;;;;;5.40;1.35;;;;;;;;;;5505664;26;20022;-67
2024/04/10 14:14:17;;;;;;;9.55;1.50;;;;;;;;;;5511438;26;20041;-67
2024/04/10 14:16:47;;;;;;;6.03;1.33;;;;;;;;;;5505275;26;20049;-67
2024/04/10 14:19:15;;;;;;;8.40;1.67;;;;;;;;;;5478047;26;20551;-67
2024/04/10 14:21:42;;;;;;;4.63;1.00;;;;;;;;;;5507303;26;20045;-67
2024/04/10 14:24:10;;;;;;;5.85;1.55;;;;;;;;;;5476682;26;20108;-67
2024/04/10 14:26:37;;;;;;;6.15;1.50;;;;;;;;;;5510115;26;20029;-67
2024/04/10 14:29:05;;;;;;;9.00;1.20;;;;;;;;;;5510564;26;20446;-67
2024/04/10 14:31:32;;;;;;;7.18;1.50;;;;;;;;;;5506956;26;20076;-67
2024/04/10 14:34:00;;;;;;;7.72;1.38;;;;;;;;;;5508988;26;20033;-67
2024/04/10 14:36:29;;;;;;;7.70;1.40;;;;;;;;;;5512441;26;20153;-67
2024/04/10 14:38:57;;;;;;;8.68;1.55;;;;;;;;;;5510540;26;20467;-67
2024/04/10 14:41:24;;;;;;;6.43;1.20;;;;;;;;;;5510251;26;20349;-67